createdAt,value
2022-12-22T00:01:50.517Z,7.90
2022-12-22T00:04:36.379Z,7.80
2022-12-22T00:07:22.214Z,7.80
2022-12-22T00:10:08.193Z,7.80
2022-12-22T00:12:54.300Z,7.70
2022-12-22T00:15:40.200Z,7.80
2022-12-22T00:18:30.589Z,7.80
2022-12-22T00:21:16.312Z,7.90
2022-12-22T00:24:02.165Z,7.90
2022-12-22T00:26:49.713Z,7.80
2022-12-22T00:29:36.056Z,7.80
2022-12-22T00:32:22.621Z,7.60
2022-12-22T00:35:08.517Z,7.70
2022-12-22T00:37:55.656Z,7.80
2022-12-22T00:40:46.024Z,7.80
2022-12-22T00:43:31.929Z,7.70
2022-12-22T00:46:19.714Z,7.80
2022-12-22T00:49:05.649Z,7.90
2022-12-22T00:51:51.456Z,7.80
2022-12-22T00:54:37.879Z,7.80
2022-12-22T00:57:23.411Z,7.80
2022-12-22T01:00:09.474Z,7.80
2022-12-22T01:02:55.680Z,7.80
2022-12-22T01:05:41.725Z,7.80
2022-12-22T01:08:28.187Z,7.90
2022-12-22T01:11:14.181Z,7.90
2022-12-22T01:13:59.973Z,7.90
2022-12-22T01:16:46.048Z,7.90
2022-12-22T01:19:31.819Z,7.90
2022-12-22T01:22:17.966Z,8.00
2022-12-22T01:25:04.358Z,7.90
2022-12-22T01:27:50.018Z,7.90
2022-12-22T01:30:36.042Z,7.80
2022-12-22T01:33:22.066Z,7.80
2022-12-22T01:36:07.674Z,7.70
2022-12-22T01:38:53.424Z,7.60
2022-12-22T01:41:39.487Z,7.70
2022-12-22T01:44:35.185Z,7.70
2022-12-22T01:47:39.869Z,7.70
2022-12-22T01:50:25.879Z,7.60
2022-12-22T01:53:18.019Z,7.60
2022-12-22T01:56:05.686Z,7.70
2022-12-22T01:58:53.578Z,7.70
2022-12-22T02:01:39.588Z,7.70
2022-12-22T02:04:25.222Z,7.60
2022-12-22T02:07:12.629Z,7.50
2022-12-22T02:10:02.335Z,7.60
2022-12-22T02:12:51.226Z,7.60
2022-12-22T02:15:46.426Z,7.60
2022-12-22T02:18:42.340Z,7.70
2022-12-22T02:21:36.971Z,7.60
2022-12-22T02:24:26.031Z,7.50
2022-12-22T02:27:13.603Z,7.50
2022-12-22T02:30:02.081Z,7.50
2022-12-22T02:32:52.082Z,7.50
2022-12-22T02:35:38.000Z,7.60
2022-12-22T02:39:02.025Z,7.60
2022-12-22T02:41:50.553Z,7.50
2022-12-22T02:44:42.320Z,7.70
2022-12-22T02:47:31.015Z,7.70
2022-12-22T02:50:18.624Z,7.60
2022-12-22T02:53:05.140Z,7.60
2022-12-22T02:55:50.978Z,7.60
2022-12-22T02:58:37.084Z,7.60
2022-12-22T03:01:23.625Z,7.60
2022-12-22T03:04:09.643Z,7.50
2022-12-22T03:06:55.642Z,7.50
2022-12-22T03:09:41.435Z,7.60
2022-12-22T03:12:27.377Z,7.60
2022-12-22T03:15:13.272Z,7.70
2022-12-22T03:17:58.935Z,7.60
2022-12-22T03:20:44.856Z,7.60
2022-12-22T03:23:30.889Z,7.60
2022-12-22T03:25:59.420Z,7.60
2022-12-22T03:31:30.724Z,7.80
2022-12-22T03:33:58.079Z,7.80
2022-12-22T03:36:25.321Z,7.80
2022-12-22T03:38:52.561Z,7.90
2022-12-22T03:41:38.189Z,7.80
2022-12-22T03:44:23.914Z,7.70
2022-12-22T03:46:51.178Z,7.80
2022-12-22T03:49:19.438Z,7.80
2022-12-22T03:51:47.885Z,7.70
2022-12-22T03:54:17.845Z,7.70
2022-12-22T03:56:45.276Z,7.70
2022-12-22T03:59:12.712Z,7.80
2022-12-22T04:01:41.576Z,7.80
2022-12-22T04:04:09.062Z,7.80
2022-12-22T04:06:36.275Z,7.80
2022-12-22T04:09:04.003Z,7.90
2022-12-22T04:11:49.563Z,7.80
2022-12-22T04:14:16.808Z,7.80
2022-12-22T04:16:44.195Z,7.80
2022-12-22T04:19:11.867Z,7.80
2022-12-22T04:21:39.316Z,7.70
2022-12-22T04:24:06.728Z,7.80
2022-12-22T04:26:34.151Z,7.80
2022-12-22T04:29:01.600Z,7.80
2022-12-22T04:31:28.972Z,7.90
2022-12-22T04:33:56.307Z,7.90
2022-12-22T04:36:23.551Z,7.80
2022-12-22T04:38:50.971Z,7.90
2022-12-22T04:41:18.162Z,7.80
2022-12-22T04:43:45.350Z,7.70
2022-12-22T04:46:12.684Z,7.80
2022-12-22T04:48:40.031Z,7.90
2022-12-22T04:51:07.278Z,7.90
2022-12-22T04:53:34.544Z,8.00
2022-12-22T04:56:06.056Z,7.90
2022-12-22T04:58:33.709Z,8.00
2022-12-22T05:01:11.912Z,8.00
2022-12-22T05:03:39.584Z,7.90
2022-12-22T05:06:07.114Z,7.80
2022-12-22T05:08:34.386Z,7.60
2022-12-22T05:11:02.936Z,7.60
2022-12-22T05:13:31.068Z,7.50
2022-12-22T05:16:06.006Z,7.80
2022-12-22T05:18:34.121Z,7.80
2022-12-22T05:21:06.758Z,7.80
2022-12-22T05:23:34.006Z,7.90
2022-12-22T05:26:01.257Z,7.90
2022-12-22T05:28:28.616Z,7.80
2022-12-22T05:30:56.000Z,7.80
2022-12-22T05:33:23.387Z,7.70
2022-12-22T05:35:50.595Z,7.60
2022-12-22T05:38:17.819Z,7.80
2022-12-22T05:40:45.010Z,7.80
2022-12-22T05:43:12.220Z,7.70
2022-12-22T05:45:39.553Z,7.80
2022-12-22T05:48:06.916Z,7.80
2022-12-22T05:50:34.138Z,7.80
2022-12-22T05:53:05.474Z,7.80
2022-12-22T05:55:33.051Z,7.60
2022-12-22T05:58:01.970Z,7.70
2022-12-22T06:00:30.524Z,7.70
2022-12-22T06:02:57.963Z,7.80
2022-12-22T06:05:25.372Z,7.90
2022-12-22T06:07:52.642Z,7.90
2022-12-22T06:10:19.911Z,7.90
2022-12-22T06:12:47.253Z,7.80
2022-12-22T06:15:14.819Z,7.90
2022-12-22T06:17:44.985Z,7.90
2022-12-22T06:20:13.513Z,7.80
2022-12-22T06:22:40.759Z,7.80
2022-12-22T06:25:10.908Z,7.60
2022-12-22T06:27:42.868Z,7.60
2022-12-22T06:30:10.310Z,7.70
2022-12-22T06:32:38.323Z,7.70
2022-12-22T06:35:06.220Z,7.70
2022-12-22T06:37:33.534Z,7.80
2022-12-22T06:40:01.510Z,7.70
2022-12-22T06:42:47.473Z,7.80
2022-12-22T06:45:14.766Z,7.90
2022-12-22T06:47:42.038Z,7.80
2022-12-22T06:50:10.012Z,7.80
2022-12-22T06:52:37.276Z,7.90
2022-12-22T06:55:04.616Z,7.90
2022-12-22T06:57:31.777Z,7.90
2022-12-22T06:59:59.013Z,7.90
2022-12-22T07:02:26.393Z,7.80
2022-12-22T07:04:53.766Z,7.80
2022-12-22T07:07:21.040Z,7.80
2022-12-22T07:09:48.245Z,7.80
2022-12-22T07:12:15.463Z,7.80
2022-12-22T07:14:42.741Z,7.90
2022-12-22T07:17:10.033Z,7.90
2022-12-22T07:19:37.386Z,7.80
2022-12-22T07:22:04.596Z,8.00
2022-12-22T07:24:31.980Z,7.90
2022-12-22T07:26:59.343Z,7.90
2022-12-22T07:29:26.760Z,7.90
2022-12-22T07:31:54.068Z,8.00
2022-12-22T07:34:21.328Z,8.00
2022-12-22T07:36:48.512Z,8.00
2022-12-22T07:39:15.790Z,8.00
2022-12-22T07:42:01.409Z,8.00
2022-12-22T07:44:28.678Z,7.90
2022-12-22T07:46:55.925Z,8.00
2022-12-22T07:49:42.120Z,7.90
2022-12-22T07:52:09.349Z,8.00
2022-12-22T07:54:41.379Z,7.80
2022-12-22T07:57:09.089Z,7.90
2022-12-22T07:59:36.397Z,8.10
2022-12-22T08:02:03.774Z,8.00
2022-12-22T08:04:31.041Z,8.10
2022-12-22T08:06:58.896Z,8.20
2022-12-22T08:09:26.122Z,8.20
2022-12-22T08:11:53.347Z,8.10
2022-12-22T08:14:20.526Z,8.20
2022-12-22T08:16:47.800Z,8.20
2022-12-22T08:19:15.027Z,8.20
2022-12-22T08:21:46.771Z,8.30
2022-12-22T08:24:17.407Z,8.30
2022-12-22T08:26:46.577Z,8.30
2022-12-22T08:29:16.555Z,8.30
2022-12-22T08:31:44.281Z,8.10
2022-12-22T08:34:13.323Z,8.30
2022-12-22T08:36:44.211Z,8.20
2022-12-22T08:39:11.716Z,8.30
2022-12-22T08:41:51.297Z,8.20
2022-12-22T08:44:23.133Z,8.20
2022-12-22T08:46:51.145Z,8.20
2022-12-22T08:49:18.634Z,8.30
2022-12-22T08:51:46.243Z,8.40
2022-12-22T08:54:13.626Z,8.40
2022-12-22T08:56:40.809Z,8.30
2022-12-22T08:59:08.285Z,8.40
2022-12-22T09:01:36.589Z,8.40
2022-12-22T09:04:04.207Z,8.40
2022-12-22T09:06:38.573Z,8.60
2022-12-22T09:09:09.335Z,8.60
2022-12-22T09:11:36.720Z,8.70
2022-12-22T09:14:04.079Z,8.80
2022-12-22T09:16:32.290Z,8.80
2022-12-22T09:19:00.088Z,8.80
2022-12-22T09:21:27.673Z,8.80
2022-12-22T09:23:55.440Z,9.10
2022-12-22T09:26:23.708Z,9.30
2022-12-22T09:28:51.210Z,9.10
2022-12-22T09:31:19.658Z,9.10
2022-12-22T09:33:47.138Z,9.00
2022-12-22T09:36:15.325Z,9.10
2022-12-22T09:38:43.201Z,9.00
2022-12-22T09:41:21.280Z,9.00
2022-12-22T09:43:48.566Z,9.20
2022-12-22T09:46:21.458Z,9.20
2022-12-22T09:48:49.167Z,9.10
2022-12-22T09:51:22.699Z,9.30
2022-12-22T09:54:00.169Z,9.10
2022-12-22T09:56:28.338Z,8.90
2022-12-22T09:58:55.579Z,9.20
2022-12-22T10:01:41.490Z,9.20
2022-12-22T10:04:17.086Z,9.20
2022-12-22T10:06:50.009Z,9.30
2022-12-22T10:09:48.092Z,9.30
2022-12-22T10:12:12.642Z,9.20
2022-12-22T10:14:41.893Z,9.10
2022-12-22T10:17:23.094Z,9.20
2022-12-22T10:19:51.354Z,9.40
2022-12-22T10:22:18.508Z,9.70
2022-12-22T10:24:45.758Z,9.50
2022-12-22T10:27:14.351Z,9.50
2022-12-22T10:29:41.594Z,9.50
2022-12-22T10:32:13.467Z,9.40
2022-12-22T10:34:58.646Z,9.50
2022-12-22T10:37:31.267Z,9.40
2022-12-22T10:39:58.493Z,9.60
2022-12-22T10:42:25.768Z,9.40
2022-12-22T10:44:53.073Z,9.20
2022-12-22T10:47:22.006Z,9.20
2022-12-22T10:52:30.532Z,9.40
2022-12-22T10:55:16.688Z,9.20
2022-12-22T10:57:43.975Z,9.30
2022-12-22T11:00:26.528Z,9.40
2022-12-22T11:02:54.948Z,9.40
2022-12-22T11:05:22.540Z,9.50
2022-12-22T11:07:50.074Z,9.50
2022-12-22T11:10:36.774Z,9.30
2022-12-22T11:13:10.258Z,9.20
2022-12-22T11:15:55.789Z,9.20
2022-12-22T11:18:38.393Z,9.20
2022-12-22T11:21:24.955Z,9.30
2022-12-22T11:24:01.382Z,9.30
2022-12-22T11:26:28.728Z,9.30
2022-12-22T11:29:01.349Z,9.30
2022-12-22T11:31:40.816Z,9.40
2022-12-22T11:34:21.514Z,9.30
2022-12-22T11:36:48.867Z,9.30
2022-12-22T11:39:17.520Z,9.40
2022-12-22T11:42:02.831Z,9.50
2022-12-22T11:44:39.903Z,9.60
2022-12-22T11:47:39.321Z,9.70
2022-12-22T11:51:02.141Z,9.70
2022-12-22T11:53:05.502Z,9.80
2022-12-22T11:56:01.109Z,10.00
2022-12-22T11:58:54.353Z,10.00
2022-12-22T12:01:27.536Z,10.00
2022-12-22T12:04:07.788Z,10.40
2022-12-22T12:06:53.559Z,10.60
2022-12-22T12:09:39.183Z,10.60
2022-12-22T12:12:06.352Z,10.40
2022-12-22T12:14:52.259Z,10.50
2022-12-22T12:17:19.420Z,10.90
2022-12-22T12:19:52.610Z,10.70
2022-12-22T12:22:19.791Z,10.60
2022-12-22T12:24:50.019Z,10.80
2022-12-22T12:27:39.909Z,10.80
2022-12-22T12:33:13.805Z,10.40
2022-12-22T12:36:02.677Z,10.20
2022-12-22T12:39:07.415Z,10.20
2022-12-22T12:41:32.222Z,10.20
2022-12-22T12:44:00.325Z,10.50
2022-12-22T12:46:46.247Z,10.60
2022-12-22T12:49:32.033Z,10.40
2022-12-22T12:52:01.541Z,10.30
2022-12-22T12:54:37.699Z,10.20
2022-12-22T12:57:07.680Z,9.90
2022-12-22T12:59:40.721Z,10.00
2022-12-22T13:02:26.691Z,9.90
2022-12-22T13:05:13.311Z,10.00
2022-12-22T13:07:59.034Z,10.10
2022-12-22T13:10:26.451Z,10.10
2022-12-22T13:12:54.230Z,10.20
2022-12-22T13:15:27.399Z,10.40
2022-12-22T13:17:54.770Z,10.30
2022-12-22T13:20:25.708Z,10.40
2022-12-22T13:22:54.264Z,10.30
2022-12-22T13:25:22.381Z,10.20
2022-12-22T13:27:50.847Z,10.40
2022-12-22T13:30:19.846Z,10.50
2022-12-22T13:32:49.251Z,10.40
2022-12-22T13:35:33.909Z,10.50
2022-12-22T13:38:03.138Z,10.30
2022-12-22T13:40:32.077Z,10.40
2022-12-22T13:43:10.206Z,10.40
2022-12-22T13:45:43.817Z,10.30
2022-12-22T13:48:41.632Z,10.20
2022-12-22T13:51:22.376Z,10.40
2022-12-22T13:54:11.882Z,10.20
2022-12-22T13:56:41.598Z,10.10
2022-12-22T13:59:18.027Z,9.90
2022-12-22T14:01:52.030Z,10.00
2022-12-22T14:04:19.409Z,10.00
2022-12-22T14:06:46.595Z,10.00
2022-12-22T14:09:18.355Z,9.90
2022-12-22T14:11:52.161Z,9.70
2022-12-22T14:14:28.392Z,9.60
2022-12-22T14:16:59.580Z,9.60
2022-12-22T14:19:30.841Z,9.50
2022-12-22T14:22:01.062Z,9.60
2022-12-22T14:24:34.680Z,9.60
2022-12-22T14:27:05.032Z,9.50
2022-12-22T14:29:32.282Z,9.50
2022-12-22T14:32:01.932Z,9.40
2022-12-22T14:34:32.749Z,9.30
2022-12-22T14:37:00.537Z,9.40
2022-12-22T14:39:30.910Z,9.40
2022-12-22T14:41:59.528Z,9.50
2022-12-22T14:44:28.675Z,9.60
2022-12-22T14:47:04.753Z,9.60
2022-12-22T14:49:32.426Z,9.60
2022-12-22T14:52:16.189Z,9.60
2022-12-22T14:54:45.944Z,9.60
2022-12-22T14:57:16.991Z,9.50
2022-12-22T14:59:57.843Z,9.50
2022-12-22T15:02:39.543Z,9.70
2022-12-22T15:05:25.236Z,9.80
2022-12-22T15:08:05.426Z,9.70
2022-12-22T15:10:39.845Z,9.80
2022-12-22T15:13:11.256Z,9.60
2022-12-22T15:15:38.593Z,9.60
2022-12-22T15:18:05.847Z,9.50
2022-12-22T15:20:38.930Z,9.50
2022-12-22T15:23:14.215Z,9.50
2022-12-22T15:25:41.510Z,9.60
2022-12-22T15:28:08.967Z,9.60
2022-12-22T15:30:36.614Z,9.50
2022-12-22T15:33:04.147Z,9.30
2022-12-22T15:35:33.058Z,9.30
2022-12-22T15:38:00.885Z,9.30
2022-12-22T15:40:28.501Z,9.30
2022-12-22T15:42:55.640Z,9.40
2022-12-22T15:45:22.980Z,9.40
2022-12-22T15:47:51.599Z,9.50
2022-12-22T15:50:28.557Z,9.50
2022-12-22T15:52:57.964Z,9.60
2022-12-22T15:55:25.695Z,9.50
2022-12-22T15:57:55.009Z,9.40
2022-12-22T16:00:22.661Z,9.40
2022-12-22T16:02:50.317Z,9.40
2022-12-22T16:05:18.904Z,9.60
2022-12-22T16:07:46.079Z,9.40
2022-12-22T16:10:29.743Z,9.30
2022-12-22T16:13:01.626Z,9.30
2022-12-22T16:15:31.190Z,9.30
2022-12-22T16:17:59.268Z,9.30
2022-12-22T16:20:30.643Z,9.30
2022-12-22T16:23:02.382Z,9.30
2022-12-22T16:25:37.102Z,9.30
2022-12-22T16:28:04.779Z,9.30
2022-12-22T16:30:33.065Z,9.40
2022-12-22T16:33:00.784Z,9.30
2022-12-22T16:35:29.029Z,9.50
2022-12-22T16:37:57.427Z,9.50
2022-12-22T16:40:24.842Z,9.50
2022-12-22T16:45:44.193Z,9.50
2022-12-22T16:48:30.617Z,9.40
2022-12-22T16:50:57.854Z,9.40
2022-12-22T16:53:25.137Z,9.50
2022-12-22T16:55:52.321Z,9.60
2022-12-22T16:58:19.574Z,9.50
2022-12-22T17:00:47.175Z,9.60
2022-12-22T17:03:16.476Z,9.70
2022-12-22T17:05:48.508Z,9.60
2022-12-22T17:08:19.023Z,9.70
2022-12-22T17:10:46.336Z,9.70
2022-12-22T17:13:13.583Z,9.70
2022-12-22T17:15:40.954Z,9.70
2022-12-22T17:18:18.591Z,9.70
2022-12-22T17:20:47.359Z,9.70
2022-12-22T17:23:33.172Z,9.60
2022-12-22T17:26:01.768Z,9.60
2022-12-22T17:28:29.014Z,9.30
2022-12-22T17:30:56.512Z,9.40
2022-12-22T17:33:23.774Z,9.40
2022-12-22T17:35:51.162Z,9.50
2022-12-22T17:38:19.809Z,9.60
2022-12-22T17:40:47.946Z,9.60
2022-12-22T17:43:16.732Z,9.60
2022-12-22T17:45:45.993Z,9.70
2022-12-22T17:48:14.002Z,9.40
2022-12-22T17:50:42.330Z,9.50
2022-12-22T17:53:14.841Z,9.40
2022-12-22T17:56:09.930Z,9.60
2022-12-22T17:58:29.348Z,9.30
2022-12-22T18:00:56.624Z,9.50
2022-12-22T18:03:23.962Z,9.40
2022-12-22T18:05:51.257Z,9.30
2022-12-22T18:08:20.436Z,9.30
2022-12-22T18:10:48.388Z,9.30
2022-12-22T18:13:17.922Z,9.40
2022-12-22T18:15:45.250Z,9.30
2022-12-22T18:18:14.041Z,9.30
2022-12-22T18:20:41.774Z,9.30
2022-12-22T18:23:17.315Z,9.30
2022-12-22T18:25:44.562Z,9.30
2022-12-22T18:28:18.792Z,9.30
2022-12-22T18:30:46.153Z,9.20
2022-12-22T18:33:14.463Z,9.20
2022-12-22T18:35:42.516Z,9.10
2022-12-22T18:38:21.748Z,9.00
2022-12-22T18:40:48.991Z,8.90
2022-12-22T18:43:16.267Z,8.90
2022-12-22T18:45:43.472Z,9.00
2022-12-22T18:48:10.719Z,9.00
2022-12-22T18:50:39.567Z,8.90
2022-12-22T18:53:15.285Z,8.90
2022-12-22T18:55:42.733Z,9.00
2022-12-22T18:58:11.949Z,9.10
2022-12-22T19:00:39.246Z,9.10
2022-12-22T19:03:14.483Z,9.10
2022-12-22T19:05:41.888Z,9.20
2022-12-22T19:08:13.131Z,9.20
2022-12-22T19:10:42.507Z,9.20
2022-12-22T19:13:16.585Z,9.30
2022-12-22T19:15:43.973Z,9.20
2022-12-22T19:18:15.663Z,9.20
2022-12-22T19:20:44.885Z,9.10
2022-12-22T19:23:13.389Z,9.00
2022-12-22T19:25:41.215Z,9.00
2022-12-22T19:28:15.696Z,9.00
2022-12-22T19:30:42.943Z,9.00
2022-12-22T19:33:17.032Z,9.00
2022-12-22T19:35:44.260Z,9.00
2022-12-22T19:38:19.812Z,9.00
2022-12-22T19:40:48.107Z,9.00
2022-12-22T19:43:15.783Z,9.00
2022-12-22T19:45:43.142Z,9.10
2022-12-22T19:48:15.608Z,8.80
2022-12-22T19:50:42.865Z,8.70
2022-12-22T19:53:10.546Z,8.60
2022-12-22T19:55:42.942Z,8.60
2022-12-22T19:58:17.703Z,8.70
2022-12-22T20:00:45.716Z,8.60
2022-12-22T20:03:14.833Z,8.70
2022-12-22T20:05:42.160Z,8.60
2022-12-22T20:08:09.428Z,8.50
2022-12-22T20:10:37.133Z,8.60
2022-12-22T20:13:11.395Z,8.70
2022-12-22T20:15:39.155Z,8.60
2022-12-22T20:18:20.357Z,8.60
2022-12-22T20:20:55.682Z,8.60
2022-12-22T20:23:24.700Z,8.60
2022-12-22T20:25:53.768Z,8.70
2022-12-22T20:28:22.445Z,8.60
2022-12-22T20:30:50.100Z,8.70
2022-12-22T20:33:18.281Z,8.70
2022-12-22T20:35:46.653Z,8.70
2022-12-22T20:38:13.870Z,8.80
2022-12-22T20:40:41.070Z,8.70
2022-12-22T20:43:12.251Z,8.70
2022-12-22T20:45:39.720Z,8.80
2022-12-22T20:48:06.978Z,8.90
2022-12-22T20:50:34.454Z,8.90
2022-12-22T20:53:02.115Z,8.90
2022-12-22T20:55:29.342Z,8.80
2022-12-22T20:57:56.588Z,8.80
2022-12-22T21:00:25.766Z,8.80
2022-12-22T21:02:53.527Z,8.90
2022-12-22T21:05:21.419Z,8.90
2022-12-22T21:07:49.158Z,8.80
2022-12-22T21:10:18.434Z,8.80
2022-12-22T21:12:45.958Z,8.80
2022-12-22T21:15:20.777Z,8.90
2022-12-22T21:17:52.775Z,8.90
2022-12-22T21:20:25.529Z,9.00
2022-12-22T21:22:52.903Z,9.00
2022-12-22T21:25:20.168Z,9.00
2022-12-22T21:27:48.611Z,9.10
2022-12-22T21:30:18.970Z,9.10
2022-12-22T21:32:46.267Z,8.90
2022-12-22T21:35:17.279Z,8.90
2022-12-22T21:37:45.924Z,9.00
2022-12-22T21:40:26.748Z,8.90
2022-12-22T21:42:54.246Z,8.90
2022-12-22T21:45:22.692Z,8.90
2022-12-22T21:47:50.283Z,8.80
2022-12-22T21:50:19.634Z,8.90
2022-12-22T21:52:50.211Z,8.80
2022-12-22T21:55:18.798Z,8.90
2022-12-22T21:57:46.071Z,8.90
2022-12-22T22:00:14.693Z,8.80
2022-12-22T22:02:42.298Z,8.80
2022-12-22T22:05:20.451Z,8.80
2022-12-22T22:07:47.710Z,8.90
2022-12-22T22:10:17.494Z,8.90
2022-12-22T22:12:45.482Z,8.90
2022-12-22T22:15:13.386Z,8.90
2022-12-22T22:17:41.116Z,8.90
2022-12-22T22:20:09.796Z,9.00
2022-12-22T22:22:37.068Z,9.00
2022-12-22T22:25:04.516Z,9.10
2022-12-22T22:27:31.782Z,9.00
2022-12-22T22:29:59.077Z,8.90
2022-12-22T22:32:26.382Z,9.00
2022-12-22T22:34:53.812Z,8.90
2022-12-22T22:37:21.059Z,8.90
2022-12-22T22:39:48.291Z,8.90
2022-12-22T22:42:15.599Z,8.90
2022-12-22T22:44:42.854Z,8.90
2022-12-22T22:47:10.059Z,8.90
2022-12-22T22:49:37.348Z,9.00
2022-12-22T22:52:04.688Z,9.00
2022-12-22T22:54:32.834Z,8.90
2022-12-22T22:57:00.156Z,8.80
2022-12-22T22:59:27.336Z,8.80
2022-12-22T23:01:54.690Z,8.90
2022-12-22T23:04:22.021Z,8.90
2022-12-22T23:06:49.329Z,8.80
2022-12-22T23:09:17.943Z,8.80
2022-12-22T23:11:45.172Z,8.90
2022-12-22T23:14:12.490Z,8.90
2022-12-22T23:16:39.850Z,8.90
2022-12-22T23:19:07.152Z,8.90
2022-12-22T23:21:34.458Z,8.90
2022-12-22T23:24:01.734Z,9.00
2022-12-22T23:26:29.014Z,9.10
2022-12-22T23:29:02.630Z,8.90
2022-12-22T23:31:31.039Z,8.90
2022-12-22T23:33:58.338Z,8.90
2022-12-22T23:36:25.700Z,8.90
2022-12-22T23:38:52.964Z,8.80
2022-12-22T23:41:20.306Z,8.80
2022-12-22T23:43:47.579Z,8.80
2022-12-22T23:46:16.898Z,8.90
2022-12-22T23:48:44.593Z,8.90
2022-12-22T23:51:12.027Z,8.90
2022-12-22T23:53:39.360Z,8.90
2022-12-22T23:56:06.749Z,8.90
2022-12-22T23:58:34.006Z,8.90
